sensor_id;sensor_type;location;lat;lon;timestamp;P1;durP1;ratioP1;P2;durP2;ratioP2
62610;SDS011;48683;48.084;17.272;2022-12-18T00:00:30;33.85;;;17.58;;
62610;SDS011;48683;48.084;17.272;2022-12-18T00:02:55;37.00;;;18.23;;
62610;SDS011;48683;48.084;17.272;2022-12-18T00:05:21;33.88;;;18.38;;
62610;SDS011;48683;48.084;17.272;2022-12-18T00:07:46;35.92;;;18.23;;
62610;SDS011;48683;48.084;17.272;2022-12-18T00:10:11;35.67;;;17.95;;
62610;SDS011;48683;48.084;17.272;2022-12-18T00:12:37;31.80;;;17.83;;
62610;SDS011;48683;48.084;17.272;2022-12-18T00:15:02;31.40;;;17.63;;
62610;SDS011;48683;48.084;17.272;2022-12-18T00:17:28;33.45;;;17.05;;
62610;SDS011;48683;48.084;17.272;2022-12-18T00:19:53;32.47;;;16.95;;
62610;SDS011;48683;48.084;17.272;2022-12-18T00:22:18;33.72;;;17.25;;
62610;SDS011;48683;48.084;17.272;2022-12-18T00:24:44;38.97;;;19.25;;
62610;SDS011;48683;48.084;17.272;2022-12-18T00:27:09;36.42;;;17.13;;
62610;SDS011;48683;48.084;17.272;2022-12-18T00:29:34;33.45;;;17.70;;
62610;SDS011;48683;48.084;17.272;2022-12-18T00:32:00;35.90;;;18.20;;
62610;SDS011;48683;48.084;17.272;2022-12-18T00:34:25;33.22;;;17.67;;
62610;SDS011;48683;48.084;17.272;2022-12-18T00:36:50;35.92;;;18.90;;
62610;SDS011;48683;48.084;17.272;2022-12-18T00:39:16;36.72;;;18.92;;
62610;SDS011;48683;48.084;17.272;2022-12-18T00:41:41;38.72;;;18.83;;
62610;SDS011;48683;48.084;17.272;2022-12-18T00:44:25;35.85;;;18.13;;
62610;SDS011;48683;48.084;17.272;2022-12-18T00:46:50;43.10;;;20.13;;
62610;SDS011;48683;48.084;17.272;2022-12-18T00:49:16;36.28;;;20.00;;
62610;SDS011;48683;48.084;17.272;2022-12-18T00:51:43;37.10;;;19.02;;
62610;SDS011;48683;48.084;17.272;2022-12-18T00:54:08;38.47;;;19.75;;
62610;SDS011;48683;48.084;17.272;2022-12-18T00:56:37;37.78;;;19.35;;
62610;SDS011;48683;48.084;17.272;2022-12-18T00:59:03;35.85;;;18.80;;
62610;SDS011;48683;48.084;17.272;2022-12-18T01:01:29;38.75;;;19.65;;
62610;SDS011;48683;48.084;17.272;2022-12-18T01:03:54;39.35;;;20.73;;
62610;SDS011;48683;48.084;17.272;2022-12-18T01:06:20;38.92;;;20.38;;
62610;SDS011;48683;48.084;17.272;2022-12-18T01:08:45;36.15;;;20.13;;
62610;SDS011;48683;48.084;17.272;2022-12-18T01:11:11;35.83;;;18.25;;
62610;SDS011;48683;48.084;17.272;2022-12-18T01:13:39;42.45;;;21.92;;
62610;SDS011;48683;48.084;17.272;2022-12-18T01:16:05;36.42;;;19.40;;
62610;SDS011;48683;48.084;17.272;2022-12-18T01:18:30;40.95;;;21.30;;
62610;SDS011;48683;48.084;17.272;2022-12-18T01:20:56;39.80;;;21.13;;
62610;SDS011;48683;48.084;17.272;2022-12-18T01:23:21;40.95;;;21.10;;
62610;SDS011;48683;48.084;17.272;2022-12-18T01:25:47;41.28;;;22.00;;
62610;SDS011;48683;48.084;17.272;2022-12-18T01:28:12;43.67;;;21.75;;
62610;SDS011;48683;48.084;17.272;2022-12-18T01:30:37;44.13;;;22.52;;
62610;SDS011;48683;48.084;17.272;2022-12-18T01:33:06;39.65;;;21.10;;
62610;SDS011;48683;48.084;17.272;2022-12-18T01:35:31;38.25;;;20.90;;
62610;SDS011;48683;48.084;17.272;2022-12-18T01:37:56;42.10;;;21.52;;
62610;SDS011;48683;48.084;17.272;2022-12-18T01:40:22;36.90;;;21.15;;
62610;SDS011;48683;48.084;17.272;2022-12-18T01:42:54;42.65;;;21.88;;
62610;SDS011;48683;48.084;17.272;2022-12-18T01:45:24;40.88;;;20.80;;
62610;SDS011;48683;48.084;17.272;2022-12-18T01:48:10;36.45;;;19.88;;
62610;SDS011;48683;48.084;17.272;2022-12-18T01:50:36;40.15;;;21.55;;
62610;SDS011;48683;48.084;17.272;2022-12-18T01:53:14;45.03;;;22.10;;
62610;SDS011;48683;48.084;17.272;2022-12-18T01:55:43;43.92;;;22.30;;
62610;SDS011;48683;48.084;17.272;2022-12-18T01:58:18;43.17;;;21.98;;
62610;SDS011;48683;48.084;17.272;2022-12-18T02:00:45;39.65;;;21.23;;
62610;SDS011;48683;48.084;17.272;2022-12-18T02:03:10;43.67;;;21.95;;
62610;SDS011;48683;48.084;17.272;2022-12-18T02:10:55;39.15;;;20.42;;
62610;SDS011;48683;48.084;17.272;2022-12-18T02:18:49;42.63;;;21.75;;
62610;SDS011;48683;48.084;17.272;2022-12-18T02:21:25;39.20;;;21.10;;
62610;SDS011;48683;48.084;17.272;2022-12-18T02:24:04;48.38;;;22.70;;
62610;SDS011;48683;48.084;17.272;2022-12-18T02:26:48;38.83;;;19.98;;
62610;SDS011;48683;48.084;17.272;2022-12-18T02:29:18;43.17;;;22.00;;
62610;SDS011;48683;48.084;17.272;2022-12-18T02:32:08;48.35;;;22.75;;
62610;SDS011;48683;48.084;17.272;2022-12-18T02:34:39;42.60;;;21.25;;
62610;SDS011;48683;48.084;17.272;2022-12-18T02:37:06;44.85;;;22.38;;
62610;SDS011;48683;48.084;17.272;2022-12-18T02:39:36;41.92;;;21.67;;
62610;SDS011;48683;48.084;17.272;2022-12-18T02:42:06;44.47;;;21.77;;
62610;SDS011;48683;48.084;17.272;2022-12-18T02:44:35;37.60;;;20.08;;
62610;SDS011;48683;48.084;17.272;2022-12-18T02:47:08;40.10;;;21.30;;
62610;SDS011;48683;48.084;17.272;2022-12-18T02:49:49;35.83;;;19.27;;
62610;SDS011;48683;48.084;17.272;2022-12-18T02:57:19;43.00;;;20.77;;
62610;SDS011;48683;48.084;17.272;2022-12-18T03:07:51;37.25;;;19.27;;
62610;SDS011;48683;48.084;17.272;2022-12-18T03:10:24;40.88;;;20.40;;
62610;SDS011;48683;48.084;17.272;2022-12-18T03:12:59;44.88;;;21.95;;
62610;SDS011;48683;48.084;17.272;2022-12-18T03:15:30;41.28;;;21.05;;
62610;SDS011;48683;48.084;17.272;2022-12-18T03:18:03;41.25;;;21.70;;
62610;SDS011;48683;48.084;17.272;2022-12-18T03:20:32;38.92;;;20.65;;
62610;SDS011;48683;48.084;17.272;2022-12-18T03:23:02;40.00;;;21.90;;
62610;SDS011;48683;48.084;17.272;2022-12-18T03:25:33;41.67;;;21.13;;
62610;SDS011;48683;48.084;17.272;2022-12-18T03:28:03;38.25;;;20.27;;
62610;SDS011;48683;48.084;17.272;2022-12-18T03:30:33;42.60;;;22.08;;
62610;SDS011;48683;48.084;17.272;2022-12-18T03:33:05;41.42;;;22.77;;
62610;SDS011;48683;48.084;17.272;2022-12-18T03:35:35;42.55;;;21.70;;
62610;SDS011;48683;48.084;17.272;2022-12-18T03:38:04;41.63;;;20.25;;
62610;SDS011;48683;48.084;17.272;2022-12-18T03:40:32;47.15;;;24.25;;
62610;SDS011;48683;48.084;17.272;2022-12-18T03:43:08;41.53;;;22.10;;
62610;SDS011;48683;48.084;17.272;2022-12-18T03:45:38;42.67;;;22.45;;
62610;SDS011;48683;48.084;17.272;2022-12-18T03:51:07;42.72;;;21.88;;
62610;SDS011;48683;48.084;17.272;2022-12-18T03:56:14;45.28;;;21.38;;
62610;SDS011;48683;48.084;17.272;2022-12-18T03:58:42;42.45;;;21.50;;
62610;SDS011;48683;48.084;17.272;2022-12-18T04:01:08;42.55;;;21.95;;
62610;SDS011;48683;48.084;17.272;2022-12-18T04:03:37;42.72;;;22.17;;
62610;SDS011;48683;48.084;17.272;2022-12-18T04:06:03;47.40;;;23.05;;
62610;SDS011;48683;48.084;17.272;2022-12-18T04:08:30;36.97;;;20.73;;
62610;SDS011;48683;48.084;17.272;2022-12-18T04:10:56;43.95;;;22.27;;
62610;SDS011;48683;48.084;17.272;2022-12-18T04:13:22;39.97;;;21.55;;
62610;SDS011;48683;48.084;17.272;2022-12-18T04:15:55;39.75;;;20.35;;
62610;SDS011;48683;48.084;17.272;2022-12-18T04:18:20;41.55;;;20.58;;
62610;SDS011;48683;48.084;17.272;2022-12-18T04:20:45;44.63;;;22.02;;
62610;SDS011;48683;48.084;17.272;2022-12-18T04:23:11;36.83;;;20.42;;
62610;SDS011;48683;48.084;17.272;2022-12-18T04:25:36;38.08;;;19.35;;
62610;SDS011;48683;48.084;17.272;2022-12-18T04:28:02;39.08;;;20.42;;
62610;SDS011;48683;48.084;17.272;2022-12-18T04:30:27;37.42;;;19.67;;
62610;SDS011;48683;48.084;17.272;2022-12-18T04:32:52;39.70;;;20.35;;
62610;SDS011;48683;48.084;17.272;2022-12-18T04:35:18;42.70;;;21.10;;
62610;SDS011;48683;48.084;17.272;2022-12-18T04:37:43;38.15;;;21.15;;
62610;SDS011;48683;48.084;17.272;2022-12-18T04:40:09;41.25;;;20.00;;
62610;SDS011;48683;48.084;17.272;2022-12-18T04:42:34;43.53;;;21.08;;
62610;SDS011;48683;48.084;17.272;2022-12-18T04:45:00;39.38;;;21.35;;
62610;SDS011;48683;48.084;17.272;2022-12-18T04:47:25;39.58;;;20.23;;
62610;SDS011;48683;48.084;17.272;2022-12-18T04:49:50;47.42;;;22.00;;
62610;SDS011;48683;48.084;17.272;2022-12-18T04:52:16;43.90;;;21.33;;
62610;SDS011;48683;48.084;17.272;2022-12-18T04:54:41;41.85;;;21.23;;
62610;SDS011;48683;48.084;17.272;2022-12-18T04:57:06;44.58;;;21.88;;
62610;SDS011;48683;48.084;17.272;2022-12-18T04:59:32;47.60;;;21.65;;
62610;SDS011;48683;48.084;17.272;2022-12-18T05:01:57;41.90;;;20.95;;
62610;SDS011;48683;48.084;17.272;2022-12-18T05:04:22;46.85;;;23.05;;
62610;SDS011;48683;48.084;17.272;2022-12-18T05:06:48;48.65;;;22.63;;
62610;SDS011;48683;48.084;17.272;2022-12-18T05:09:13;51.67;;;23.42;;
62610;SDS011;48683;48.084;17.272;2022-12-18T05:11:39;44.70;;;23.17;;
62610;SDS011;48683;48.084;17.272;2022-12-18T05:14:04;44.05;;;21.58;;
62610;SDS011;48683;48.084;17.272;2022-12-18T05:16:29;45.70;;;22.15;;
62610;SDS011;48683;48.084;17.272;2022-12-18T05:18:55;44.17;;;21.98;;
62610;SDS011;48683;48.084;17.272;2022-12-18T05:21:20;46.38;;;21.25;;
62610;SDS011;48683;48.084;17.272;2022-12-18T05:23:46;42.95;;;21.33;;
62610;SDS011;48683;48.084;17.272;2022-12-18T05:26:14;42.75;;;21.92;;
62610;SDS011;48683;48.084;17.272;2022-12-18T05:28:41;50.08;;;24.35;;
62610;SDS011;48683;48.084;17.272;2022-12-18T05:31:07;51.45;;;23.95;;
62610;SDS011;48683;48.084;17.272;2022-12-18T05:33:33;47.35;;;23.23;;
62610;SDS011;48683;48.084;17.272;2022-12-18T05:36:00;51.97;;;25.80;;
62610;SDS011;48683;48.084;17.272;2022-12-18T05:38:28;53.97;;;24.40;;
62610;SDS011;48683;48.084;17.272;2022-12-18T05:40:54;51.60;;;24.80;;
62610;SDS011;48683;48.084;17.272;2022-12-18T05:43:20;51.70;;;25.75;;
62610;SDS011;48683;48.084;17.272;2022-12-18T05:45:49;49.75;;;23.88;;
62610;SDS011;48683;48.084;17.272;2022-12-18T05:48:15;49.95;;;24.63;;
62610;SDS011;48683;48.084;17.272;2022-12-18T05:50:42;54.10;;;25.80;;
62610;SDS011;48683;48.084;17.272;2022-12-18T05:53:10;53.25;;;25.50;;
62610;SDS011;48683;48.084;17.272;2022-12-18T05:55:36;50.53;;;25.08;;
62610;SDS011;48683;48.084;17.272;2022-12-18T05:58:03;57.03;;;27.40;;
62610;SDS011;48683;48.084;17.272;2022-12-18T06:00:30;48.65;;;24.70;;
62610;SDS011;48683;48.084;17.272;2022-12-18T06:02:57;50.08;;;24.35;;
62610;SDS011;48683;48.084;17.272;2022-12-18T06:05:22;46.95;;;23.17;;
62610;SDS011;48683;48.084;17.272;2022-12-18T06:07:47;46.50;;;23.65;;
62610;SDS011;48683;48.084;17.272;2022-12-18T06:10:13;49.63;;;25.10;;
62610;SDS011;48683;48.084;17.272;2022-12-18T06:12:38;49.55;;;24.15;;
62610;SDS011;48683;48.084;17.272;2022-12-18T06:15:04;49.17;;;22.98;;
62610;SDS011;48683;48.084;17.272;2022-12-18T06:17:30;47.85;;;23.08;;
62610;SDS011;48683;48.084;17.272;2022-12-18T06:19:56;48.05;;;23.55;;
62610;SDS011;48683;48.084;17.272;2022-12-18T06:22:21;50.15;;;24.73;;
62610;SDS011;48683;48.084;17.272;2022-12-18T06:24:47;50.28;;;24.58;;
62610;SDS011;48683;48.084;17.272;2022-12-18T06:27:12;44.92;;;22.27;;
62610;SDS011;48683;48.084;17.272;2022-12-18T06:29:38;48.58;;;24.13;;
62610;SDS011;48683;48.084;17.272;2022-12-18T06:32:03;52.65;;;24.27;;
62610;SDS011;48683;48.084;17.272;2022-12-18T06:34:32;50.85;;;24.58;;
62610;SDS011;48683;48.084;17.272;2022-12-18T06:36:57;53.20;;;26.10;;
62610;SDS011;48683;48.084;17.272;2022-12-18T06:39:23;50.47;;;25.77;;
62610;SDS011;48683;48.084;17.272;2022-12-18T06:41:49;53.65;;;25.38;;
62610;SDS011;48683;48.084;17.272;2022-12-18T06:44:14;52.42;;;25.35;;
62610;SDS011;48683;48.084;17.272;2022-12-18T06:46:40;53.40;;;25.63;;
62610;SDS011;48683;48.084;17.272;2022-12-18T06:49:05;54.72;;;24.27;;
62610;SDS011;48683;48.084;17.272;2022-12-18T06:51:31;57.00;;;25.40;;
62610;SDS011;48683;48.084;17.272;2022-12-18T06:53:56;51.00;;;24.63;;
62610;SDS011;48683;48.084;17.272;2022-12-18T06:56:21;51.55;;;24.23;;
62610;SDS011;48683;48.084;17.272;2022-12-18T06:58:47;49.97;;;24.70;;
62610;SDS011;48683;48.084;17.272;2022-12-18T07:01:13;48.90;;;24.00;;
62610;SDS011;48683;48.084;17.272;2022-12-18T07:03:39;54.25;;;24.63;;
62610;SDS011;48683;48.084;17.272;2022-12-18T07:06:05;55.90;;;26.90;;
62610;SDS011;48683;48.084;17.272;2022-12-18T07:08:31;47.20;;;25.15;;
62610;SDS011;48683;48.084;17.272;2022-12-18T07:10:57;54.38;;;25.48;;
62610;SDS011;48683;48.084;17.272;2022-12-18T07:13:22;52.55;;;26.83;;
62610;SDS011;48683;48.084;17.272;2022-12-18T07:15:47;63.75;;;30.23;;
62610;SDS011;48683;48.084;17.272;2022-12-18T07:18:13;56.67;;;27.20;;
62610;SDS011;48683;48.084;17.272;2022-12-18T07:20:38;50.42;;;25.95;;
62610;SDS011;48683;48.084;17.272;2022-12-18T07:23:04;53.13;;;26.73;;
62610;SDS011;48683;48.084;17.272;2022-12-18T07:25:30;51.75;;;25.52;;
62610;SDS011;48683;48.084;17.272;2022-12-18T07:27:58;45.30;;;23.52;;
62610;SDS011;48683;48.084;17.272;2022-12-18T07:30:24;47.92;;;25.52;;
62610;SDS011;48683;48.084;17.272;2022-12-18T07:32:49;49.13;;;25.15;;
62610;SDS011;48683;48.084;17.272;2022-12-18T07:35:14;37.22;;;21.48;;
62610;SDS011;48683;48.084;17.272;2022-12-18T07:37:40;47.65;;;24.67;;
62610;SDS011;48683;48.084;17.272;2022-12-18T07:40:05;48.75;;;25.60;;
62610;SDS011;48683;48.084;17.272;2022-12-18T07:42:31;51.92;;;26.23;;
62610;SDS011;48683;48.084;17.272;2022-12-18T07:44:57;43.78;;;23.65;;
62610;SDS011;48683;48.084;17.272;2022-12-18T07:47:26;44.95;;;23.10;;
62610;SDS011;48683;48.084;17.272;2022-12-18T07:49:52;39.65;;;22.90;;
62610;SDS011;48683;48.084;17.272;2022-12-18T07:52:17;45.05;;;22.48;;
62610;SDS011;48683;48.084;17.272;2022-12-18T07:54:43;48.92;;;24.08;;
62610;SDS011;48683;48.084;17.272;2022-12-18T07:57:08;42.00;;;22.35;;
62610;SDS011;48683;48.084;17.272;2022-12-18T07:59:34;43.80;;;23.42;;
62610;SDS011;48683;48.084;17.272;2022-12-18T08:01:59;46.33;;;23.90;;
62610;SDS011;48683;48.084;17.272;2022-12-18T08:04:25;42.88;;;21.92;;
62610;SDS011;48683;48.084;17.272;2022-12-18T08:06:50;43.80;;;23.83;;
62610;SDS011;48683;48.084;17.272;2022-12-18T08:09:16;45.92;;;23.90;;
62610;SDS011;48683;48.084;17.272;2022-12-18T08:11:42;51.35;;;25.65;;
62610;SDS011;48683;48.084;17.272;2022-12-18T08:14:08;47.35;;;24.50;;
62610;SDS011;48683;48.084;17.272;2022-12-18T08:16:33;49.95;;;24.80;;
62610;SDS011;48683;48.084;17.272;2022-12-18T08:18:59;49.83;;;25.83;;
62610;SDS011;48683;48.084;17.272;2022-12-18T08:21:26;54.33;;;27.10;;
62610;SDS011;48683;48.084;17.272;2022-12-18T08:23:53;49.95;;;25.15;;
62610;SDS011;48683;48.084;17.272;2022-12-18T08:28:46;50.97;;;26.27;;
62610;SDS011;48683;48.084;17.272;2022-12-18T08:31:11;50.40;;;24.00;;
62610;SDS011;48683;48.084;17.272;2022-12-18T08:33:37;43.85;;;23.25;;
62610;SDS011;48683;48.084;17.272;2022-12-18T08:36:04;42.45;;;22.58;;
62610;SDS011;48683;48.084;17.272;2022-12-18T08:38:33;51.63;;;24.13;;
62610;SDS011;48683;48.084;17.272;2022-12-18T08:41:01;54.15;;;26.10;;
62610;SDS011;48683;48.084;17.272;2022-12-18T08:43:28;50.25;;;26.10;;
62610;SDS011;48683;48.084;17.272;2022-12-18T08:46:11;60.22;;;28.40;;
62610;SDS011;48683;48.084;17.272;2022-12-18T08:48:37;54.22;;;26.60;;
62610;SDS011;48683;48.084;17.272;2022-12-18T08:51:02;56.88;;;26.90;;
62610;SDS011;48683;48.084;17.272;2022-12-18T08:53:28;48.05;;;24.00;;
62610;SDS011;48683;48.084;17.272;2022-12-18T08:55:53;53.90;;;25.90;;
62610;SDS011;48683;48.084;17.272;2022-12-18T08:58:21;52.70;;;26.05;;
62610;SDS011;48683;48.084;17.272;2022-12-18T09:00:46;52.78;;;25.25;;
62610;SDS011;48683;48.084;17.272;2022-12-18T09:03:15;49.92;;;23.85;;
62610;SDS011;48683;48.084;17.272;2022-12-18T09:05:42;56.53;;;24.38;;
62610;SDS011;48683;48.084;17.272;2022-12-18T09:08:07;59.28;;;25.95;;
62610;SDS011;48683;48.084;17.272;2022-12-18T09:10:34;51.08;;;25.30;;
62610;SDS011;48683;48.084;17.272;2022-12-18T09:12:59;58.03;;;24.48;;
62610;SDS011;48683;48.084;17.272;2022-12-18T09:15:24;56.13;;;24.42;;
62610;SDS011;48683;48.084;17.272;2022-12-18T09:17:50;51.28;;;24.13;;
62610;SDS011;48683;48.084;17.272;2022-12-18T09:20:17;54.13;;;23.50;;
62610;SDS011;48683;48.084;17.272;2022-12-18T09:22:43;49.92;;;21.67;;
62610;SDS011;48683;48.084;17.272;2022-12-18T09:25:09;52.65;;;23.48;;
62610;SDS011;48683;48.084;17.272;2022-12-18T09:27:34;50.10;;;23.35;;
62610;SDS011;48683;48.084;17.272;2022-12-18T09:30:00;53.80;;;24.23;;
62610;SDS011;48683;48.084;17.272;2022-12-18T09:32:26;62.00;;;25.17;;
62610;SDS011;48683;48.084;17.272;2022-12-18T09:34:51;49.33;;;21.38;;
62610;SDS011;48683;48.084;17.272;2022-12-18T09:37:17;50.20;;;22.67;;
62610;SDS011;48683;48.084;17.272;2022-12-18T09:39:42;47.88;;;24.10;;
62610;SDS011;48683;48.084;17.272;2022-12-18T09:42:09;54.67;;;23.80;;
62610;SDS011;48683;48.084;17.272;2022-12-18T09:44:44;53.05;;;22.42;;
62610;SDS011;48683;48.084;17.272;2022-12-18T09:49:49;50.03;;;22.92;;
62610;SDS011;48683;48.084;17.272;2022-12-18T09:52:34;51.38;;;23.65;;
62610;SDS011;48683;48.084;17.272;2022-12-18T09:55:08;50.53;;;22.40;;
62610;SDS011;48683;48.084;17.272;2022-12-18T09:57:40;51.13;;;24.08;;
62610;SDS011;48683;48.084;17.272;2022-12-18T10:00:19;53.83;;;25.33;;
62610;SDS011;48683;48.084;17.272;2022-12-18T10:02:46;54.42;;;23.02;;
62610;SDS011;48683;48.084;17.272;2022-12-18T10:05:13;54.17;;;25.20;;
62610;SDS011;48683;48.084;17.272;2022-12-18T10:10:38;55.03;;;24.38;;
62610;SDS011;48683;48.084;17.272;2022-12-18T10:13:16;54.78;;;22.80;;
62610;SDS011;48683;48.084;17.272;2022-12-18T10:16:16;56.58;;;24.08;;
62610;SDS011;48683;48.084;17.272;2022-12-18T10:22:03;47.58;;;22.35;;
62610;SDS011;48683;48.084;17.272;2022-12-18T10:27:39;60.95;;;28.67;;
62610;SDS011;48683;48.084;17.272;2022-12-18T10:30:16;56.03;;;26.08;;
62610;SDS011;48683;48.084;17.272;2022-12-18T10:32:44;58.85;;;26.52;;
62610;SDS011;48683;48.084;17.272;2022-12-18T10:35:24;56.55;;;26.65;;
62610;SDS011;48683;48.084;17.272;2022-12-18T10:40:27;56.60;;;26.65;;
62610;SDS011;48683;48.084;17.272;2022-12-18T10:43:05;53.55;;;25.23;;
62610;SDS011;48683;48.084;17.272;2022-12-18T10:45:37;54.05;;;23.60;;
62610;SDS011;48683;48.084;17.272;2022-12-18T10:48:02;48.42;;;23.05;;
62610;SDS011;48683;48.084;17.272;2022-12-18T10:50:32;47.92;;;23.63;;
62610;SDS011;48683;48.084;17.272;2022-12-18T10:53:03;55.75;;;25.25;;
62610;SDS011;48683;48.084;17.272;2022-12-18T10:58:24;61.55;;;26.95;;
62610;SDS011;48683;48.084;17.272;2022-12-18T11:03:36;59.08;;;26.00;;
62610;SDS011;48683;48.084;17.272;2022-12-18T11:06:26;52.85;;;24.00;;
62610;SDS011;48683;48.084;17.272;2022-12-18T11:09:33;56.13;;;25.40;;
62610;SDS011;48683;48.084;17.272;2022-12-18T11:11:54;53.58;;;25.08;;
62610;SDS011;48683;48.084;17.272;2022-12-18T11:17:16;57.72;;;26.55;;
62610;SDS011;48683;48.084;17.272;2022-12-18T11:19:43;55.40;;;24.38;;
62610;SDS011;48683;48.084;17.272;2022-12-18T11:24:53;53.47;;;25.67;;
62610;SDS011;48683;48.084;17.272;2022-12-18T11:27:19;52.67;;;25.08;;
62610;SDS011;48683;48.084;17.272;2022-12-18T11:29:45;49.40;;;23.48;;
62610;SDS011;48683;48.084;17.272;2022-12-18T11:35:03;50.40;;;22.75;;
62610;SDS011;48683;48.084;17.272;2022-12-18T11:37:40;50.88;;;23.42;;
62610;SDS011;48683;48.084;17.272;2022-12-18T11:40:14;56.90;;;25.23;;
62610;SDS011;48683;48.084;17.272;2022-12-18T11:47:52;51.58;;;24.85;;
62610;SDS011;48683;48.084;17.272;2022-12-18T11:50:33;54.83;;;25.67;;
62610;SDS011;48683;48.084;17.272;2022-12-18T11:53:15;55.28;;;25.77;;
62610;SDS011;48683;48.084;17.272;2022-12-18T11:55:47;57.50;;;25.40;;
62610;SDS011;48683;48.084;17.272;2022-12-18T11:58:46;56.08;;;24.83;;
62610;SDS011;48683;48.084;17.272;2022-12-18T12:04:13;55.42;;;25.45;;
62610;SDS011;48683;48.084;17.272;2022-12-18T12:12:51;48.15;;;22.40;;
62610;SDS011;48683;48.084;17.272;2022-12-18T12:18:32;48.05;;;22.48;;
62610;SDS011;48683;48.084;17.272;2022-12-18T12:23:41;51.50;;;23.95;;
62610;SDS011;48683;48.084;17.272;2022-12-18T12:26:40;44.97;;;22.30;;
62610;SDS011;48683;48.084;17.272;2022-12-18T12:34:22;40.15;;;21.77;;
62610;SDS011;48683;48.084;17.272;2022-12-18T12:39:43;49.15;;;24.05;;
62610;SDS011;48683;48.084;17.272;2022-12-18T12:42:13;44.75;;;22.77;;
62610;SDS011;48683;48.084;17.272;2022-12-18T12:45:03;50.13;;;24.65;;
62610;SDS011;48683;48.084;17.272;2022-12-18T12:47:36;44.17;;;23.35;;
62610;SDS011;48683;48.084;17.272;2022-12-18T12:50:06;41.15;;;22.25;;
62610;SDS011;48683;48.084;17.272;2022-12-18T12:52:43;41.30;;;21.27;;
62610;SDS011;48683;48.084;17.272;2022-12-18T12:55:21;79.63;;;23.20;;
62610;SDS011;48683;48.084;17.272;2022-12-18T12:58:00;58.17;;;22.48;;
62610;SDS011;48683;48.084;17.272;2022-12-18T13:00:36;63.08;;;23.15;;
62610;SDS011;48683;48.084;17.272;2022-12-18T13:03:38;45.58;;;22.73;;
62610;SDS011;48683;48.084;17.272;2022-12-18T13:09:02;50.58;;;24.98;;
62610;SDS011;48683;48.084;17.272;2022-12-18T13:11:42;47.92;;;23.10;;
62610;SDS011;48683;48.084;17.272;2022-12-18T13:19:44;52.63;;;24.20;;
62610;SDS011;48683;48.084;17.272;2022-12-18T13:22:23;50.25;;;25.27;;
62610;SDS011;48683;48.084;17.272;2022-12-18T13:24:53;50.20;;;24.70;;
62610;SDS011;48683;48.084;17.272;2022-12-18T13:35:39;51.72;;;23.58;;
62610;SDS011;48683;48.084;17.272;2022-12-18T13:46:06;56.72;;;26.23;;
62610;SDS011;48683;48.084;17.272;2022-12-18T13:48:34;52.63;;;25.50;;
62610;SDS011;48683;48.084;17.272;2022-12-18T13:53:44;52.42;;;24.73;;
62610;SDS011;48683;48.084;17.272;2022-12-18T13:56:18;55.50;;;26.70;;
62610;SDS011;48683;48.084;17.272;2022-12-18T13:59:09;50.58;;;25.48;;
62610;SDS011;48683;48.084;17.272;2022-12-18T14:01:41;52.55;;;25.38;;
62610;SDS011;48683;48.084;17.272;2022-12-18T14:04:18;52.65;;;25.67;;
62610;SDS011;48683;48.084;17.272;2022-12-18T14:06:47;57.22;;;26.48;;
62610;SDS011;48683;48.084;17.272;2022-12-18T14:09:16;55.25;;;27.70;;
62610;SDS011;48683;48.084;17.272;2022-12-18T14:11:47;60.58;;;27.95;;
62610;SDS011;48683;48.084;17.272;2022-12-18T14:16:43;54.88;;;25.25;;
62610;SDS011;48683;48.084;17.272;2022-12-18T14:19:11;69.50;;;29.73;;
62610;SDS011;48683;48.084;17.272;2022-12-18T14:21:40;61.47;;;29.33;;
62610;SDS011;48683;48.084;17.272;2022-12-18T14:24:18;57.60;;;28.40;;
62610;SDS011;48683;48.084;17.272;2022-12-18T14:26:46;66.05;;;31.85;;
62610;SDS011;48683;48.084;17.272;2022-12-18T14:32:09;63.70;;;30.00;;
62610;SDS011;48683;48.084;17.272;2022-12-18T14:37:09;62.47;;;28.40;;
62610;SDS011;48683;48.084;17.272;2022-12-18T14:39:36;66.90;;;29.70;;
62610;SDS011;48683;48.084;17.272;2022-12-18T14:42:02;62.17;;;29.05;;
62610;SDS011;48683;48.084;17.272;2022-12-18T14:44:27;56.03;;;27.48;;
62610;SDS011;48683;48.084;17.272;2022-12-18T14:46:52;65.15;;;29.13;;
62610;SDS011;48683;48.084;17.272;2022-12-18T14:49:31;60.03;;;28.85;;
62610;SDS011;48683;48.084;17.272;2022-12-18T14:51:59;57.97;;;27.80;;
62610;SDS011;48683;48.084;17.272;2022-12-18T14:54:27;62.72;;;30.48;;
62610;SDS011;48683;48.084;17.272;2022-12-18T14:56:59;63.83;;;29.15;;
62610;SDS011;48683;48.084;17.272;2022-12-18T14:59:27;67.50;;;30.35;;
62610;SDS011;48683;48.084;17.272;2022-12-18T15:02:04;66.82;;;32.05;;
62610;SDS011;48683;48.084;17.272;2022-12-18T15:04:41;68.63;;;29.58;;
62610;SDS011;48683;48.084;17.272;2022-12-18T15:07:21;60.53;;;29.40;;
62610;SDS011;48683;48.084;17.272;2022-12-18T15:10:30;63.92;;;29.75;;
62610;SDS011;48683;48.084;17.272;2022-12-18T15:12:42;68.32;;;29.02;;
62610;SDS011;48683;48.084;17.272;2022-12-18T15:18:00;66.68;;;29.73;;
62610;SDS011;48683;48.084;17.272;2022-12-18T15:20:27;63.60;;;28.27;;
62610;SDS011;48683;48.084;17.272;2022-12-18T15:22:55;63.33;;;28.48;;
62610;SDS011;48683;48.084;17.272;2022-12-18T15:25:28;65.35;;;29.77;;
62610;SDS011;48683;48.084;17.272;2022-12-18T15:27:59;64.68;;;30.00;;
62610;SDS011;48683;48.084;17.272;2022-12-18T15:30:24;61.55;;;29.25;;
62610;SDS011;48683;48.084;17.272;2022-12-18T15:32:51;61.55;;;27.85;;
62610;SDS011;48683;48.084;17.272;2022-12-18T15:35:19;61.03;;;28.50;;
62610;SDS011;48683;48.084;17.272;2022-12-18T15:37:49;64.53;;;29.33;;
62610;SDS011;48683;48.084;17.272;2022-12-18T15:40:19;68.93;;;32.28;;
62610;SDS011;48683;48.084;17.272;2022-12-18T15:42:48;65.43;;;31.08;;
62610;SDS011;48683;48.084;17.272;2022-12-18T15:45:36;65.40;;;30.02;;
62610;SDS011;48683;48.084;17.272;2022-12-18T15:48:04;60.83;;;28.65;;
62610;SDS011;48683;48.084;17.272;2022-12-18T15:50:39;63.30;;;30.55;;
62610;SDS011;48683;48.084;17.272;2022-12-18T15:53:05;69.88;;;34.17;;
62610;SDS011;48683;48.084;17.272;2022-12-18T15:55:30;74.28;;;36.22;;
62610;SDS011;48683;48.084;17.272;2022-12-18T15:58:14;76.68;;;36.35;;
62610;SDS011;48683;48.084;17.272;2022-12-18T16:00:40;75.25;;;36.38;;
62610;SDS011;48683;48.084;17.272;2022-12-18T16:03:05;72.22;;;35.08;;
62610;SDS011;48683;48.084;17.272;2022-12-18T16:05:31;77.32;;;35.25;;
62610;SDS011;48683;48.084;17.272;2022-12-18T16:07:56;69.90;;;34.80;;
62610;SDS011;48683;48.084;17.272;2022-12-18T16:10:23;80.13;;;34.33;;
62610;SDS011;48683;48.084;17.272;2022-12-18T16:12:49;76.90;;;33.78;;
62610;SDS011;48683;48.084;17.272;2022-12-18T16:15:15;70.50;;;32.65;;
62610;SDS011;48683;48.084;17.272;2022-12-18T16:17:44;66.28;;;30.02;;
62610;SDS011;48683;48.084;17.272;2022-12-18T16:20:12;71.38;;;33.08;;
62610;SDS011;48683;48.084;17.272;2022-12-18T16:22:39;67.70;;;32.17;;
62610;SDS011;48683;48.084;17.272;2022-12-18T16:25:06;70.95;;;32.30;;